首页
METAR-TAF:

METAR-TAF

机场 :

雷克雅維克, 冰岛

纬度: 64-08N, 经度: 021-54W, 海拔: 54米

当前天气观测

该预报发布于23分钟前的14:00 UTC
风速17节,风向东转东南
温度 8°C
湿度 71%
气压 1028 hPa
能见度10公里或以上
散云层高于2800英尺
多云层高于4000英尺

METAR: BIRK 201400Z 12017KT 9999 SCT028 BKN040 08/03 Q1028

时间: 14:23 (14:23 UTC)

预报

该预报发布于3小时和30分钟前的10:53 UTC
预报有效从20日的 12点(UTC)到 21日的 12点(UTC)
风速20节,风向东南,有时为30节阵风
能见度10公里或以上
散云层高于2000英尺
多云层高于3000英尺
成为
从 20日的 20点(UTC)到 20日的 23点(UTC)
风速10节,风向

TAF: BIRK 201053Z 2012/2112 13020G30KT 9999 SCT020 BKN030 TX07/2014Z TN02/2110Z BECMG 2020/2023 10010KT

超过4000个机场的气象观测和天气预报(METAR&TAF报告)。

可查询的气象台以黄色和红色小点在地图上表示。

将鼠标移到小点上方,可查看气象台名称。

然后点击查看天气观测和预报。

如需切换地图:点击带黑十字的绿色按钮放大地图;点击带横线的绿色按钮缩小地图;或者点击绿色箭头查看邻近地区的地图。


METAR-TAF: